KTPH/TPH METAR and TAF weather

Enter ICAO airport designator
Station Type Date Time Source
KTPH METAR 2022/11/27 07:56 UTC NOAA

KTPH 270756Z AUTO 02010KT 10SM CLR M02/M06 A3023 RMK AO2 SLP233 T10221061 401171050


Station Type Date Time Source
KTPH Decoded METAR 2022/11/27 07:56 UTC NOAA

TONOPAH AIRPORT, NV, United States (KTPH) 38-02N 117-05W 1652M
Nov 27, 2022 - 02:56 AM EST / 2022.11.27 0756 UTC
Wind: from the NNE (020 degrees) at 12 MPH (10 KT):0
Visibility: 10 mile(s):0
Sky conditions: clear
Temperature: 28.0 F (-2.2 C)
Windchill: 17 F (-8 C):1
Dew Point: 21.0 F (-6.1 C)
Relative Humidity: 74%
Pressure (altimeter): 30.23 in. Hg (1023 hPa)
ob: KTPH 270756Z AUTO 02010KT 10SM CLR M02/M06 A3023 RMK AO2 SLP233 T10221061 401171050
cycle: 8

Station Type Date Time Source
KTPH TAF 2022/11/27 06:27 UTC NOAA

TAF KTPH 270524Z 2706/2806 35011KT P6SM SKC
FM271200 VRB06KT P6SM SKC

Example: see airport list